Terminal Aerodrome Forecast
Issued by NWS

Home | Current Version | Previous Version | Text Only | Print | Product List | Glossary On
Versions: 1 2 3 4 5 6 7 8 9 10 11 12 13 14 15 16 17 18 19 20 21 22 23 24 25
000
FTUS46 KPDT 251120
TAFBDN
TAF
KBDN 251120Z 2512/2612 21016G25KT P6SM SCT070 BKN100
     FM251800 22022G32KT P6SM VCSH SCT070 BKN090
     FM252200 23025G35KT 5SM -SN SCT020 OVC040
     FM260200 27010KT 4SM -SN BKN020 OVC040
     FM260600 27004KT P6SM SCT030 OVC050=

USA.gov is the U.S. government's official web portal to all federal, state and local government web resources and services.